Weather at Tulloch Airstrip

Public forecast

Using degrees Celsius for public forecast. Weather courtesy of forecast.io.

Closest aviation weather report (METAR) to Tulloch Airstrip

Closest report is Norman Manley International Airport, 15.3 nm (28.3 km) SE. Retrieved 2021/07/29 07:00 UTC (51 minutes ago):

MKJP 290700Z 02005KT 9999 FEW020 SCT038 27/24 Q1013

Closest aviation forecast (TAF) to Tulloch Airstrip

Closest forecast is Norman Manley International Airport, 15.3 nm (28.3 km) SE. Retrieved 2021/07/29 06:15 UTC (2 hours ago):

TAF MKJP 290515Z 2906/3006 35005KT 9999 FEW022 BECMG 2915/2917 14025KT TEMPO 2918/2923 TS SCT018 FEW020CB BECMG 3004/3006 32007KT